Terminal Aerodrome Forecast
Issued by NWS

Home | Current Version | Previous Version | Text Only | Print | Product List | Glossary On
Versions: 1 2 3 4 5 6 7 8 9 10 11 12 13 14 15 16 17 18 19 20 21 22 23 24 25 26 27 28 29 30 31 32
301
FTUS44 KLIX 232338
TAFHUM
TAF
KHUM 232338Z 2400/2424 24005KT P6SM SCT025
     FM241500 27004KT P6SM VCSH SCT030 BKN090
      TEMPO 2418/2422 VRB15G25KT 2SM TSRA BKN030CB=

USA.gov is the U.S. government's official web portal to all federal, state and local government web resources and services.